createdAt,value
2018-07-27T00:01:02.644Z,5.25
2018-07-27T00:03:32.564Z,5.12
2018-07-27T00:06:01.353Z,4.85
2018-07-27T00:08:30.675Z,5.25
2018-07-27T00:10:59.928Z,4.50
2018-07-27T00:13:29.096Z,4.80
2018-07-27T00:15:58.496Z,5.22
2018-07-27T00:18:27.918Z,5.12
2018-07-27T00:20:57.819Z,4.65
2018-07-27T00:23:27.070Z,4.62
2018-07-27T00:25:56.294Z,5.12
2018-07-27T00:28:25.754Z,5.17
2018-07-27T00:30:55.250Z,5.25
2018-07-27T00:33:24.481Z,5.17
2018-07-27T00:35:53.721Z,5.35
2018-07-27T00:38:23.132Z,6.78
2018-07-27T00:40:52.410Z,5.53
2018-07-27T00:43:22.349Z,5.80
2018-07-27T00:45:51.532Z,5.53
2018-07-27T00:48:20.894Z,4.85
2018-07-27T00:50:50.935Z,4.75
2018-07-27T00:53:20.144Z,5.22
2018-07-27T00:55:49.525Z,4.95
2018-07-27T00:58:19.611Z,4.65
2018-07-27T01:00:50.392Z,4.62
2018-07-27T01:03:19.650Z,5.55
2018-07-27T01:05:48.906Z,5.40
2018-07-27T01:08:18.468Z,5.40
2018-07-27T01:10:47.758Z,5.85
2018-07-27T01:13:17.009Z,4.95
2018-07-27T01:15:46.837Z,6.00
2018-07-27T01:18:17.070Z,5.15
2018-07-27T01:20:46.339Z,5.53
2018-07-27T01:23:15.537Z,5.60
2018-07-27T01:25:44.868Z,4.87
2018-07-27T01:28:14.239Z,5.03
2018-07-27T01:30:43.466Z,4.80
2018-07-27T01:33:12.693Z,5.37
2018-07-27T01:35:41.915Z,4.62
2018-07-27T01:38:12.270Z,6.03
2018-07-27T01:40:41.520Z,5.10
2018-07-27T01:43:11.125Z,5.33
2018-07-27T01:45:40.349Z,6.33
2018-07-27T01:48:09.725Z,6.03
2018-07-27T01:50:38.949Z,5.22
2018-07-27T01:53:08.140Z,5.28
2018-07-27T01:55:37.314Z,5.85
2018-07-27T01:58:07.237Z,5.25
2018-07-27T02:00:36.466Z,5.30
2018-07-27T02:03:05.844Z,6.10
2018-07-27T02:05:35.236Z,6.45
2018-07-27T02:08:05.535Z,5.55
2018-07-27T02:10:34.990Z,5.67
2018-07-27T02:13:04.296Z,5.00
2018-07-27T02:15:33.461Z,5.65
2018-07-27T02:18:03.732Z,5.87
2018-07-27T02:20:32.964Z,5.67
2018-07-27T02:23:02.704Z,5.87
2018-07-27T02:25:31.893Z,6.12
2018-07-27T02:28:03.199Z,6.75
2018-07-27T02:30:32.432Z,5.50
2018-07-27T02:33:01.675Z,5.60
2018-07-27T02:35:30.871Z,5.40
2018-07-27T02:38:01.510Z,5.05
2018-07-27T02:40:30.737Z,6.22
2018-07-27T02:42:59.937Z,5.85
2018-07-27T02:45:29.317Z,6.40
2018-07-27T02:47:58.524Z,6.35
2018-07-27T02:50:27.712Z,5.60
2018-07-27T02:52:56.968Z,5.58
2018-07-27T02:55:26.205Z,5.87
2018-07-27T02:57:55.531Z,5.58
2018-07-27T03:00:24.770Z,5.45
2018-07-27T03:02:54.047Z,6.40
2018-07-27T03:05:23.297Z,7.22
2018-07-27T03:07:53.032Z,5.87
2018-07-27T03:10:22.294Z,6.25
2018-07-27T03:12:52.334Z,6.28
2018-07-27T03:15:21.551Z,6.17
2018-07-27T03:17:51.625Z,5.12
2018-07-27T03:20:20.850Z,6.17
2018-07-27T03:22:50.030Z,6.17
2018-07-27T03:25:19.470Z,7.25
2018-07-27T03:27:49.037Z,7.78
2018-07-27T03:30:18.274Z,6.10
2018-07-27T03:32:47.505Z,6.67
2018-07-27T03:35:16.707Z,5.80
2018-07-27T03:37:45.938Z,5.45
2018-07-27T03:40:15.284Z,6.37
2018-07-27T03:42:44.506Z,6.20
2018-07-27T03:45:13.854Z,6.50
2018-07-27T03:47:43.073Z,5.62
2018-07-27T03:50:12.868Z,6.20
2018-07-27T03:52:42.106Z,6.62
2018-07-27T03:55:11.361Z,5.33
2018-07-27T03:57:40.824Z,5.62
2018-07-27T04:00:12.354Z,5.53
2018-07-27T04:02:42.027Z,6.22
2018-07-27T04:05:11.579Z,6.03
2018-07-27T04:07:40.783Z,6.03
2018-07-27T04:10:09.973Z,5.95
2018-07-27T04:12:39.211Z,7.85
2018-07-27T04:15:08.493Z,7.33
2018-07-27T04:17:37.714Z,6.17
2018-07-27T04:20:06.951Z,6.03
2018-07-27T04:22:36.179Z,6.10
2018-07-27T04:25:05.572Z,6.50
2018-07-27T04:27:34.805Z,6.05
2018-07-27T04:30:04.475Z,6.95
2018-07-27T04:32:33.721Z,6.03
2018-07-27T04:35:03.108Z,6.97
2018-07-27T04:37:32.311Z,6.30
2018-07-27T04:40:02.104Z,6.80
2018-07-27T04:42:31.338Z,6.25
2018-07-27T04:45:00.662Z,6.08
2018-07-27T04:47:29.922Z,6.30
2018-07-27T04:49:59.231Z,5.85
2018-07-27T04:52:28.878Z,6.42
2018-07-27T04:54:58.671Z,5.65
2018-07-27T04:57:28.308Z,6.22
2018-07-27T04:59:57.966Z,6.55
2018-07-27T05:02:27.252Z,6.75
2018-07-27T05:04:56.494Z,7.20
2018-07-27T05:07:26.380Z,5.78
2018-07-27T05:09:59.809Z,5.17
2018-07-27T05:12:29.012Z,6.22
2018-07-27T05:14:58.339Z,6.45
2018-07-27T05:17:27.590Z,6.60
2018-07-27T05:19:58.035Z,6.62
2018-07-27T05:22:27.260Z,6.45
2018-07-27T05:24:56.495Z,5.90
2018-07-27T05:27:25.754Z,7.75
2018-07-27T05:29:56.164Z,6.22
2018-07-27T05:32:25.395Z,6.67
2018-07-27T05:34:54.730Z,6.55
2018-07-27T05:37:25.311Z,6.87
2018-07-27T05:39:54.747Z,5.95
2018-07-27T05:42:23.990Z,5.60
2018-07-27T05:44:55.203Z,6.30
2018-07-27T05:47:24.995Z,6.23
2018-07-27T05:49:54.455Z,6.45
2018-07-27T05:52:23.665Z,6.78
2018-07-27T05:54:53.111Z,6.60
2018-07-27T05:57:22.414Z,7.37
2018-07-27T05:59:51.925Z,6.10
2018-07-27T06:02:22.074Z,6.83
2018-07-27T06:04:50.135Z,7.00
2018-07-27T06:07:18.970Z,6.30
2018-07-27T06:09:49.185Z,6.40
2018-07-27T06:12:18.431Z,7.23
2018-07-27T06:14:47.463Z,6.23
2018-07-27T06:17:18.441Z,7.13
2018-07-27T06:19:47.817Z,6.57
2018-07-27T06:22:17.067Z,6.30
2018-07-27T06:24:50.946Z,6.03
2018-07-27T06:27:22.621Z,6.50
2018-07-27T06:29:52.288Z,5.53
2018-07-27T06:32:22.477Z,6.37
2018-07-27T06:34:51.756Z,5.97
2018-07-27T06:37:21.003Z,6.47
2018-07-27T06:39:50.422Z,5.80
2018-07-27T06:42:19.618Z,5.87
2018-07-27T06:44:48.862Z,6.03
2018-07-27T06:47:19.536Z,4.97
2018-07-27T06:49:48.781Z,5.77
2018-07-27T06:52:17.984Z,5.87
2018-07-27T06:54:47.270Z,5.77
2018-07-27T06:57:16.498Z,6.77
2018-07-27T06:59:45.814Z,4.73
2018-07-27T07:02:16.721Z,6.33
2018-07-27T07:04:45.952Z,5.20
2018-07-27T07:07:15.192Z,6.27
2018-07-27T07:09:44.527Z,5.40
2018-07-27T07:12:13.718Z,6.60
2018-07-27T07:14:42.908Z,5.70
2018-07-27T07:17:13.041Z,5.07
2018-07-27T07:19:42.254Z,5.50
2018-07-27T07:22:11.442Z,5.77
2018-07-27T07:24:40.623Z,6.17
2018-07-27T07:27:09.876Z,5.10
2018-07-27T07:29:39.388Z,4.63
2018-07-27T07:32:08.717Z,6.37
2018-07-27T07:34:37.922Z,5.30
2018-07-27T07:37:07.185Z,5.50
2018-07-27T07:39:37.657Z,5.00
2018-07-27T07:42:07.010Z,5.03
2018-07-27T07:44:36.227Z,5.60
2018-07-27T07:47:06.343Z,5.53
2018-07-27T07:49:35.772Z,5.47
2018-07-27T07:52:05.141Z,5.47
2018-07-27T07:54:34.456Z,4.47
2018-07-27T07:57:03.956Z,5.63
2018-07-27T07:59:33.356Z,5.90
2018-07-27T08:02:02.605Z,5.20
2018-07-27T08:04:31.978Z,5.10
2018-07-27T08:07:02.204Z,5.73
2018-07-27T08:09:31.693Z,4.80
2018-07-27T08:12:02.487Z,4.77
2018-07-27T08:14:31.697Z,5.33
2018-07-27T08:17:00.956Z,5.43
2018-07-27T08:19:30.145Z,4.50
2018-07-27T08:21:59.378Z,5.33
2018-07-27T08:24:28.591Z,5.17
2018-07-27T08:27:00.895Z,4.83
2018-07-27T08:29:38.178Z,4.40
2018-07-27T08:32:07.655Z,5.73
2018-07-27T08:34:36.981Z,4.43
2018-07-27T08:37:06.611Z,5.43
2018-07-27T08:39:48.706Z,5.30
2018-07-27T08:42:19.421Z,4.70
2018-07-27T08:44:49.751Z,4.80
2018-07-27T08:47:22.491Z,5.10
2018-07-27T08:49:52.754Z,4.90
2018-07-27T08:52:21.946Z,5.37
2018-07-27T08:54:51.214Z,4.73
2018-07-27T08:57:20.443Z,5.23
2018-07-27T08:59:49.949Z,5.23
2018-07-27T09:02:21.209Z,4.80
2018-07-27T09:04:50.395Z,4.60
2018-07-27T09:07:19.693Z,4.43
2018-07-27T09:09:49.010Z,5.30
2018-07-27T09:12:18.289Z,4.47
2018-07-27T09:14:48.305Z,4.70
2018-07-27T09:17:19.448Z,4.33
2018-07-27T09:19:48.855Z,5.33
2018-07-27T09:22:18.051Z,5.50
2018-07-27T09:24:47.303Z,4.50
2018-07-27T09:27:16.642Z,4.83
2018-07-27T09:29:45.959Z,5.23
2018-07-27T09:32:16.833Z,5.27
2018-07-27T09:34:46.263Z,4.80
2018-07-27T09:37:15.534Z,5.17
2018-07-27T09:39:44.966Z,5.30
2018-07-27T09:42:14.229Z,4.87
2018-07-27T09:44:43.482Z,5.10
2018-07-27T09:47:13.232Z,6.33
2018-07-27T09:49:42.499Z,5.00
2018-07-27T09:52:26.281Z,5.20
2018-07-27T09:54:56.992Z,4.70
2018-07-27T09:57:26.206Z,4.80
2018-07-27T09:59:55.475Z,5.10
2018-07-27T10:02:26.214Z,5.10
2018-07-27T10:04:55.417Z,5.30
2018-07-27T10:07:24.618Z,5.50
2018-07-27T10:09:53.898Z,5.70
2018-07-27T10:12:23.114Z,5.43
2018-07-27T10:14:52.331Z,5.37
2018-07-27T10:17:23.360Z,5.60
2018-07-27T10:19:52.770Z,5.43
2018-07-27T10:22:21.994Z,6.17
2018-07-27T10:24:51.250Z,5.73
2018-07-27T10:27:20.527Z,5.30
2018-07-27T10:29:49.992Z,6.23
2018-07-27T10:32:21.550Z,5.90
2018-07-27T10:34:50.720Z,6.10
2018-07-27T10:37:20.124Z,5.40
2018-07-27T10:39:49.814Z,5.63
2018-07-27T10:42:19.276Z,6.40
2018-07-27T10:44:48.537Z,5.13
2018-07-27T10:47:19.928Z,5.70
2018-07-27T10:49:49.233Z,6.27
2018-07-27T10:52:18.581Z,6.13
2018-07-27T10:54:47.922Z,5.40
2018-07-27T10:57:17.142Z,5.53
2018-07-27T10:59:47.159Z,6.03
2018-07-27T11:02:18.203Z,5.93
2018-07-27T11:04:47.447Z,6.07
2018-07-27T11:07:16.655Z,5.33
2018-07-27T11:09:45.938Z,4.90
2018-07-27T11:12:15.185Z,6.67
2018-07-27T11:14:44.408Z,6.27
2018-07-27T11:17:14.580Z,5.50
2018-07-27T11:19:43.925Z,6.87
2018-07-27T11:22:13.127Z,5.93
2018-07-27T11:24:42.401Z,5.73
2018-07-27T11:27:11.612Z,6.00
2018-07-27T11:29:40.941Z,6.57
2018-07-27T11:32:10.211Z,5.97
2018-07-27T11:34:39.440Z,5.77
2018-07-27T11:37:08.740Z,6.47
2018-07-27T11:39:37.949Z,6.27
2018-07-27T11:42:07.337Z,5.70
2018-07-27T11:44:36.580Z,6.17
2018-07-27T11:47:06.114Z,6.00
2018-07-27T11:49:35.520Z,5.70
2018-07-27T11:52:04.899Z,6.30
2018-07-27T11:54:34.959Z,6.20
2018-07-27T11:57:04.172Z,5.97
2018-07-27T11:59:33.541Z,6.10
2018-07-27T12:02:02.795Z,5.87
2018-07-27T12:04:31.985Z,5.90
2018-07-27T12:07:01.352Z,5.43
2018-07-27T12:09:30.515Z,5.30
2018-07-27T12:11:59.889Z,5.60
2018-07-27T12:14:29.273Z,5.53
2018-07-27T12:16:58.356Z,5.77
2018-07-27T12:19:27.901Z,5.20
2018-07-27T12:21:57.141Z,6.60
2018-07-27T12:24:26.401Z,5.97
2018-07-27T12:26:55.627Z,5.50
2018-07-27T12:29:25.040Z,5.17
2018-07-27T12:31:54.192Z,6.00
2018-07-27T12:34:23.432Z,7.13
2018-07-27T12:36:52.657Z,5.97
2018-07-27T12:39:21.811Z,6.33
2018-07-27T12:41:51.051Z,5.33
2018-07-27T12:44:20.228Z,6.33
2018-07-27T12:46:49.425Z,5.37
2018-07-27T12:49:18.627Z,5.80
2018-07-27T12:51:48.018Z,6.10
2018-07-27T12:54:17.344Z,5.27
2018-07-27T12:56:46.625Z,6.20
2018-07-27T12:59:16.063Z,6.07
2018-07-27T13:01:45.299Z,5.83
2018-07-27T13:04:14.736Z,6.03
2018-07-27T13:06:44.250Z,6.10
2018-07-27T13:09:13.550Z,6.10
2018-07-27T13:11:42.793Z,5.60
2018-07-27T13:14:11.988Z,5.70
2018-07-27T13:16:41.364Z,5.37
2018-07-27T13:19:13.479Z,5.60
2018-07-27T13:21:43.277Z,5.60
2018-07-27T13:24:12.474Z,5.73
2018-07-27T13:26:41.718Z,6.03
2018-07-27T13:29:11.048Z,6.83
2018-07-27T13:34:43.270Z,5.33
2018-07-27T13:37:12.834Z,5.97
2018-07-27T13:39:43.002Z,5.20
2018-07-27T13:42:13.288Z,5.37
2018-07-27T13:44:42.994Z,5.00
2018-07-27T13:47:13.707Z,6.33
2018-07-27T13:49:42.925Z,4.63
2018-07-27T13:52:12.538Z,4.30
2018-07-27T13:54:41.794Z,5.30
2018-07-27T13:57:11.481Z,4.70
2018-07-27T13:59:40.693Z,4.60
2018-07-27T14:02:10.359Z,4.83
2018-07-27T14:04:39.646Z,6.33
2018-07-27T14:07:09.728Z,5.90
2018-07-27T14:09:38.999Z,5.97
2018-07-27T14:12:08.210Z,5.10
2018-07-27T14:14:37.429Z,5.23
2018-07-27T14:17:06.867Z,5.80
2018-07-27T14:19:36.237Z,5.50
2018-07-27T14:22:05.566Z,4.90
2018-07-27T14:24:34.820Z,5.20
2018-07-27T14:27:04.117Z,5.33
2018-07-27T14:29:33.363Z,5.67
2018-07-27T14:32:02.553Z,5.40
2018-07-27T14:34:31.744Z,5.63
2018-07-27T14:37:01.388Z,5.70
2018-07-27T14:39:31.524Z,5.40
2018-07-27T14:42:00.725Z,5.67
2018-07-27T14:44:30.019Z,5.67
2018-07-27T14:46:59.169Z,6.27
2018-07-27T14:49:29.447Z,5.60
2018-07-27T14:51:58.813Z,6.00
2018-07-27T14:54:29.184Z,5.13
2018-07-27T14:56:58.582Z,6.20
2018-07-27T14:59:27.892Z,6.13
2018-07-27T15:01:57.104Z,6.30
2018-07-27T15:04:26.357Z,6.00
2018-07-27T15:06:55.571Z,5.97
2018-07-27T15:09:24.825Z,6.33
2018-07-27T15:11:54.047Z,5.47
2018-07-27T15:14:23.600Z,7.37
2018-07-27T15:16:52.812Z,6.20
2018-07-27T15:19:23.086Z,5.87
2018-07-27T15:21:52.297Z,6.80
2018-07-27T15:24:21.876Z,6.30
2018-07-27T15:26:51.040Z,6.00
2018-07-27T15:29:21.245Z,6.90
2018-07-27T15:31:50.481Z,5.90
2018-07-27T15:34:19.290Z,6.13
2018-07-27T15:36:48.443Z,6.40
2018-07-27T15:39:18.656Z,5.70
2018-07-27T15:41:49.470Z,6.57
2018-07-27T15:44:18.720Z,7.10
2018-07-27T15:46:47.937Z,5.77
2018-07-27T15:49:17.845Z,6.20
2018-07-27T15:51:47.145Z,6.30
2018-07-27T15:54:16.341Z,6.60
2018-07-27T15:56:45.557Z,5.80
2018-07-27T15:59:14.961Z,6.10
2018-07-27T16:01:44.530Z,5.80
2018-07-27T16:04:13.728Z,6.30
2018-07-27T16:06:42.998Z,6.60
2018-07-27T16:09:12.390Z,6.30
2018-07-27T16:11:41.679Z,5.77
2018-07-27T16:14:10.891Z,5.80
2018-07-27T16:16:40.051Z,5.87
2018-07-27T16:19:10.344Z,6.30
2018-07-27T16:21:39.568Z,6.30
2018-07-27T16:24:08.854Z,6.90
2018-07-27T16:26:38.057Z,6.50
2018-07-27T16:29:07.408Z,6.37
2018-07-27T16:31:36.635Z,6.33
2018-07-27T16:34:06.131Z,11.70
2018-07-27T16:36:35.443Z,19.47
2018-07-27T16:39:07.764Z,14.30
2018-07-27T16:41:37.014Z,12.33
2018-07-27T16:44:06.600Z,21.63
2018-07-27T16:46:35.961Z,15.60
2018-07-27T16:49:05.689Z,10.80
2018-07-27T16:51:35.087Z,8.50
2018-07-27T16:54:04.703Z,8.20
2018-07-27T16:56:33.963Z,6.60
2018-07-27T16:59:03.302Z,7.77
2018-07-27T17:01:32.508Z,11.53
2018-07-27T17:04:01.949Z,7.20
2018-07-27T17:06:31.168Z,7.17
2018-07-27T17:09:00.502Z,10.80
2018-07-27T17:11:29.702Z,36.20
2018-07-27T17:13:58.980Z,31.73
2018-07-27T17:16:28.215Z,11.67
2018-07-27T17:18:58.582Z,25.80
2018-07-27T17:21:29.342Z,8.67
2018-07-27T17:23:58.747Z,7.40
2018-07-27T17:26:28.784Z,7.00
2018-07-27T17:28:58.947Z,7.50
2018-07-27T17:31:28.668Z,8.47
2018-07-27T17:33:57.938Z,7.57
2018-07-27T17:36:27.312Z,8.13
2018-07-27T17:38:56.754Z,7.67
2018-07-27T17:41:26.036Z,7.90
2018-07-27T17:43:55.357Z,8.40
2018-07-27T17:46:25.558Z,9.00
2018-07-27T17:48:55.121Z,8.27
2018-07-27T17:51:24.921Z,9.10
2018-07-27T17:53:54.096Z,10.70
2018-07-27T17:56:23.383Z,8.70
2018-07-27T17:58:52.875Z,6.83
2018-07-27T18:01:22.351Z,8.30
2018-07-27T18:03:54.293Z,7.67
2018-07-27T18:06:23.543Z,7.00
2018-07-27T18:08:53.064Z,8.37
2018-07-27T18:11:22.528Z,7.70
2018-07-27T18:13:51.766Z,7.03
2018-07-27T18:16:21.109Z,7.73
2018-07-27T18:18:50.390Z,8.33
2018-07-27T18:21:20.087Z,7.30
2018-07-27T18:23:49.561Z,10.07
2018-07-27T18:26:19.210Z,7.80
2018-07-27T18:28:49.135Z,7.40
2018-07-27T18:31:20.374Z,7.27
2018-07-27T18:33:49.633Z,7.30
2018-07-27T18:36:19.700Z,7.83
2018-07-27T18:38:49.099Z,6.70
2018-07-27T18:41:18.412Z,7.83
2018-07-27T18:43:47.671Z,7.73
2018-07-27T18:46:16.994Z,7.83
2018-07-27T18:48:46.250Z,7.77
2018-07-27T18:51:15.474Z,8.03
2018-07-27T18:53:45.019Z,7.90
2018-07-27T18:56:14.230Z,7.80
2018-07-27T18:58:43.733Z,9.00
2018-07-27T19:01:13.618Z,8.10
2018-07-27T19:03:43.537Z,7.37
2018-07-27T19:06:12.839Z,8.07
2018-07-27T19:08:42.689Z,8.53
2018-07-27T19:11:12.289Z,8.60
2018-07-27T19:13:41.724Z,9.00
2018-07-27T19:16:11.360Z,7.63
2018-07-27T19:18:41.545Z,8.40
2018-07-27T19:21:10.965Z,7.93
2018-07-27T19:23:40.509Z,7.87
2018-07-27T19:26:09.583Z,10.43
2018-07-27T19:28:38.809Z,11.10
2018-07-27T19:31:08.374Z,9.47
2018-07-27T19:33:37.612Z,8.10
2018-07-27T19:36:07.716Z,9.03
2018-07-27T19:38:37.083Z,8.93
2018-07-27T19:41:07.460Z,8.47
2018-07-27T19:43:36.696Z,7.47
2018-07-27T19:46:05.956Z,7.90
2018-07-27T19:48:35.407Z,8.80
2018-07-27T19:51:04.790Z,8.80
2018-07-27T19:53:34.024Z,9.17
2018-07-27T19:56:03.317Z,8.27
2018-07-27T19:58:32.582Z,8.20
2018-07-27T20:01:01.834Z,8.37
2018-07-27T20:03:31.062Z,8.87
2018-07-27T20:06:00.299Z,8.13
2018-07-27T20:08:29.573Z,9.30
2018-07-27T20:10:58.861Z,8.80
2018-07-27T20:13:28.215Z,8.90
2018-07-27T20:15:57.567Z,7.10
2018-07-27T20:18:27.026Z,8.40
2018-07-27T20:20:56.977Z,8.80
2018-07-27T20:23:27.034Z,9.20
2018-07-27T20:25:56.505Z,12.40
2018-07-27T20:28:25.962Z,8.93
2018-07-27T20:30:56.181Z,8.27
2018-07-27T20:33:25.537Z,11.37
2018-07-27T20:35:55.508Z,9.90
2018-07-27T20:38:25.042Z,9.30
2018-07-27T20:40:54.380Z,8.33
2018-07-27T20:43:24.055Z,9.07
2018-07-27T20:45:54.354Z,9.50
2018-07-27T20:48:24.411Z,8.87
2018-07-27T20:50:54.009Z,8.10
2018-07-27T20:53:23.278Z,9.97
2018-07-27T20:55:52.506Z,10.40
2018-07-27T20:58:25.084Z,9.63
2018-07-27T21:00:55.384Z,11.13
2018-07-27T21:03:24.997Z,10.67
2018-07-27T21:05:54.218Z,9.70
2018-07-27T21:08:23.726Z,10.20
2018-07-27T21:10:57.717Z,9.50
2018-07-27T21:13:28.043Z,8.47
2018-07-27T21:15:58.260Z,9.80
2018-07-27T21:18:33.329Z,10.17
2018-07-27T21:21:02.735Z,8.93
2018-07-27T21:23:32.078Z,9.43
2018-07-27T21:26:01.476Z,9.00
2018-07-27T21:28:31.342Z,9.40
2018-07-27T21:31:00.875Z,9.80
2018-07-27T21:33:30.141Z,9.30
2018-07-27T21:35:59.374Z,9.20
2018-07-27T21:38:29.427Z,9.30
2018-07-27T21:40:59.625Z,7.80
2018-07-27T21:43:29.557Z,8.80
2018-07-27T21:45:58.811Z,9.10
2018-07-27T21:48:28.117Z,9.70
2018-07-27T21:50:57.380Z,9.20
2018-07-27T21:53:26.878Z,8.37
2018-07-27T21:55:56.209Z,8.67
2018-07-27T21:58:25.655Z,8.30
2018-07-27T22:00:55.336Z,8.50
2018-07-27T22:03:24.698Z,8.87
2018-07-27T22:05:54.052Z,7.90
2018-07-27T22:08:23.559Z,8.70
2018-07-27T22:10:52.812Z,9.47
2018-07-27T22:13:22.148Z,8.03
2018-07-27T22:15:52.036Z,8.40
2018-07-27T22:18:21.656Z,9.33
2018-07-27T22:20:50.847Z,8.13
2018-07-27T22:23:20.119Z,8.60
2018-07-27T22:25:49.351Z,8.30
2018-07-27T22:28:18.675Z,8.40
2018-07-27T22:30:48.222Z,8.60
2018-07-27T22:33:18.179Z,9.63
2018-07-27T22:35:47.556Z,8.57
2018-07-27T22:38:16.971Z,8.47
2018-07-27T22:40:46.330Z,8.80
2018-07-27T22:43:16.244Z,8.63
2018-07-27T22:45:45.459Z,8.43
2018-07-27T22:48:15.120Z,8.13
2018-07-27T22:50:44.357Z,7.90
2018-07-27T22:53:13.602Z,8.17
2018-07-27T22:55:42.845Z,8.77
2018-07-27T22:58:12.165Z,8.03
2018-07-27T23:00:41.394Z,9.70
2018-07-27T23:03:10.867Z,9.10
2018-07-27T23:05:40.091Z,8.23
2018-07-27T23:08:10.437Z,9.73
2018-07-27T23:10:39.683Z,9.10
2018-07-27T23:13:08.963Z,9.27
2018-07-27T23:15:38.240Z,8.93
2018-07-27T23:18:07.746Z,12.37
2018-07-27T23:20:36.946Z,10.57
2018-07-27T23:23:06.739Z,9.57
2018-07-27T23:25:38.145Z,11.63
2018-07-27T23:28:08.171Z,13.27
2018-07-27T23:30:37.822Z,9.57
2018-07-27T23:33:07.031Z,9.10
2018-07-27T23:35:36.303Z,8.97
2018-07-27T23:38:06.103Z,8.30
2018-07-27T23:40:35.352Z,9.40
2018-07-27T23:43:04.640Z,10.68
2018-07-27T23:45:33.884Z,9.73
2018-07-27T23:48:03.322Z,8.55
2018-07-27T23:50:32.639Z,9.80
2018-07-27T23:53:02.653Z,9.10
2018-07-27T23:55:31.901Z,9.40
2018-07-27T23:58:01.354Z,8.90
